Wetterdaten: Woche 04.11.02 - 10.11.02 (KW45)
Datum Zeit Temperatur Luftfeuchte Luftdruck Regenmenge Wind Richtung Taupunkt Windchill
04.11.2002 00:00 8.5 C 81 % 1013.6 hPa 0.0 l/m 17.2 km/h (3 Bft) NW 5.4 C 6.0 C
04.11.2002 01:00 8.0 C 82 % 1012.9 hPa 0.0 l/m 10.3 km/h (2 Bft) NW 5.2 C 6.5 C
04.11.2002 02:00 7.5 C 84 % 1012.8 hPa 0.0 l/m 11.4 km/h (2 Bft) NW 5.0 C 5.7 C
04.11.2002 03:00 8.1 C 76 % 1013.0 hPa 0.3 l/m 9.7 km/h (2 Bft) NW 4.0 C 6.6 C
04.11.2002 04:00 7.0 C 87 % 1013.9 hPa 0.0 l/m 4.7 km/h (1 Bft) NW 5.0 C 6.2 C
04.11.2002 05:00 6.5 C 92 % 1013.9 hPa 0.0 l/m 2.7 km/h (1 Bft) SO 5.3 C 6.2 C
04.11.2002 06:00 6.8 C 91 % 1013.9 hPa 0.0 l/m 1.8 km/h (1 Bft) SO 5.4 C 6.6 C
04.11.2002 07:00 7.2 C 88 % 1013.9 hPa 0.0 l/m 1.8 km/h (1 Bft) W-NW 5.4 C 7.0 C
04.11.2002 08:00 7.2 C 85 % 1014.8 hPa 0.3 l/m 6.3 km/h (2 Bft) W 4.9 C 6.3 C
04.11.2002 09:00 7.6 C 85 % 1014.9 hPa 0.0 l/m 3.4 km/h (1 Bft) S-SO 5.2 C 7.2 C
04.11.2002 10:00 8.4 C 83 % 1015.3 hPa 0.0 l/m 4.6 km/h (1 Bft) SO 5.8 C 7.9 C
04.11.2002 11:00 7.6 C 86 % 1015.9 hPa 2.4 l/m 6.7 km/h (2 Bft) NW 5.4 C 6.6 C
04.11.2002 12:00 8.1 C 90 % 1015.1 hPa 0.0 l/m 0.8 km/h (0 Bft) SO 6.5 C 8.0 C
04.11.2002 13:00 8.4 C 86 % 1015.3 hPa 0.3 l/m 7.3 km/h (2 Bft) NW 6.1 C 7.4 C
04.11.2002 14:00 9.2 C 77 % 1014.9 hPa 0.0 l/m 8.6 km/h (2 Bft) NW 5.4 C 8.1 C
04.11.2002 15:00 8.6 C 80 % 1015.5 hPa 0.3 l/m 4.6 km/h (1 Bft) NW 5.2 C 8.0 C
04.11.2002 16:00 7.6 C 92 % 1015.9 hPa 0.9 l/m 1.4 km/h (1 Bft) SO 6.4 C 7.5 C
04.11.2002 17:00 7.2 C 97 % 1015.9 hPa 0.6 l/m 0.2 km/h (0 Bft) N 6.7 C 7.2 C
04.11.2002 18:00 7.2 C 98 % 1016.4 hPa 2.1 l/m 0.5 km/h (0 Bft) SO 6.9 C 7.2 C
04.11.2002 19:00 6.8 C 98 % 1017.0 hPa 0.3 l/m 0.1 km/h (0 Bft) N 6.5 C 6.8 C
04.11.2002 20:00 6.8 C 98 % 1017.6 hPa 0.0 l/m 0.0 km/h (0 Bft) N 6.6 C 6.8 C
04.11.2002 21:00 6.8 C 97 % 1018.0 hPa 0.0 l/m 0.1 km/h (0 Bft) N 6.4 C 6.8 C
04.11.2002 22:00 6.9 C 96 % 1018.4 hPa 0.0 l/m 0.2 km/h (0 Bft) N 6.3 C 6.9 C
04.11.2002 23:00 6.9 C 95 % 1019.0 hPa 0.0 l/m 0.2 km/h (0 Bft) NW 6.1 C 6.9 C
05.11.2002 00:00 6.7 C 96 % 1019.0 hPa 0.0 l/m 0.6 km/h (0 Bft) S-SW 6.0 C 6.6 C
05.11.2002 01:00 6.7 C 94 % 1019.0 hPa 0.3 l/m 0.0 km/h (0 Bft) N 5.9 C 6.7 C
05.11.2002 02:00 6.6 C 96 % 1019.0 hPa 1.2 l/m 0.0 km/h (0 Bft) N 6.0 C 6.6 C
05.11.2002 03:00 6.4 C 98 % 1019.4 hPa 0.0 l/m 0.0 km/h (0 Bft) N 6.1 C 6.4 C
05.11.2002 04:00 6.0 C 99 % 1019.6 hPa 0.0 l/m 0.0 km/h (0 Bft) N 5.8 C 6.0 C
05.11.2002 05:00 5.3 C 99 % 1020.1 hPa 0.0 l/m 0.2 km/h (0 Bft) O 5.2 C 5.3 C
05.11.2002 06:00 5.8 C 99 % 1020.1 hPa 0.0 l/m 0.0 km/h (0 Bft) N 5.7 C 5.8 C
05.11.2002 07:00 6.4 C 99 % 1021.1 hPa 0.6 l/m 0.2 km/h (0 Bft) NW 6.3 C 6.4 C
05.11.2002 08:00 6.6 C 98 % 1021.5 hPa 0.0 l/m 0.0 km/h (0 Bft) N 6.3 C 6.6 C
05.11.2002 09:00 7.4 C 95 % 1022.2 hPa 0.0 l/m 0.0 km/h (0 Bft) N 6.7 C 7.4 C
05.11.2002 10:00 7.9 C 89 % 1022.2 hPa 0.0 l/m 0.0 km/h (0 Bft) N 6.2 C 7.9 C
05.11.2002 11:00 9.1 C 79 % 1023.1 hPa 0.0 l/m 0.5 km/h (0 Bft) O-SO 5.6 C 9.1 C
05.11.2002 12:00 9.1 C 77 % 1022.8 hPa 0.0 l/m 0.2 km/h (0 Bft) N 5.3 C 9.1 C
05.11.2002 13:00 8.7 C 79 % 1023.2 hPa 0.0 l/m 2.6 km/h (1 Bft) NW 5.3 C 8.3 C
05.11.2002 14:00 9.1 C 74 % 1023.2 hPa 0.0 l/m 0.8 km/h (0 Bft) W-NW 4.7 C 9.1 C
05.11.2002 15:00 8.8 C 74 % 1023.2 hPa 0.0 l/m 0.0 km/h (0 Bft) N 4.5 C 8.8 C
05.11.2002 16:00 8.3 C 80 % 1023.8 hPa 0.0 l/m 0.0 km/h (0 Bft) N 5.0 C 8.3 C
05.11.2002 17:00 7.3 C 85 % 1023.8 hPa 0.0 l/m 0.0 km/h (0 Bft) SO 5.0 C 7.3 C
05.11.2002 18:00 7.0 C 90 % 1024.2 hPa 0.0 l/m 1.0 km/h (0 Bft) SO 5.4 C 7.0 C
05.11.2002 19:00 7.0 C 92 % 1024.2 hPa 0.3 l/m 0.3 km/h (0 Bft) N 5.7 C 6.9 C
05.11.2002 20:00 6.3 C 96 % 1025.1 hPa 2.7 l/m 0.0 km/h (0 Bft) N 5.8 C 6.3 C
05.11.2002 21:00 6.0 C 99 % 1025.3 hPa 0.3 l/m 0.1 km/h (0 Bft) N 5.8 C 6.0 C
05.11.2002 22:00 5.6 C 99 % 1025.3 hPa 0.0 l/m 0.7 km/h (0 Bft) SO 5.5 C 5.5 C
05.11.2002 23:00 5.7 C 100 % 1025.3 hPa 0.0 l/m 0.9 km/h (0 Bft) SO 5.7 C 5.6 C
06.11.2002 00:00 5.3 C 100 % 1025.3 hPa 0.0 l/m 0.0 km/h (0 Bft) N 5.2 C 5.3 C
06.11.2002 01:00 4.8 C 100 % 1025.2 hPa 0.0 l/m 1.0 km/h (0 Bft) O-SO 4.8 C 4.6 C
06.11.2002 02:00 5.1 C 100 % 1024.9 hPa 0.0 l/m 3.1 km/h (1 Bft) O-SO 5.1 C 4.5 C
06.11.2002 03:00 4.8 C 100 % 1024.7 hPa 0.0 l/m 3.3 km/h (1 Bft) O-SO 4.8 C 4.3 C
06.11.2002 04:00 4.7 C 100 % 1024.2 hPa 0.0 l/m 0.1 km/h (0 Bft) N 4.7 C 4.7 C
06.11.2002 05:00 4.8 C 100 % 1024.2 hPa 0.0 l/m 1.9 km/h (1 Bft) O-SO 4.8 C 4.3 C
06.11.2002 06:00 4.6 C 100 % 1024.2 hPa 0.0 l/m 2.5 km/h (1 Bft) O-SO 4.6 C 4.0 C
06.11.2002 07:00 4.8 C 99 % 1024.2 hPa 0.0 l/m 0.0 km/h (0 Bft) N 4.6 C 4.8 C
06.11.2002 08:00 5.0 C 98 % 1024.2 hPa 0.0 l/m 0.0 km/h (0 Bft) N 4.7 C 5.0 C
06.11.2002 09:00 5.3 C 96 % 1024.1 hPa 0.0 l/m 0.1 km/h (0 Bft) N 4.7 C 5.3 C
06.11.2002 10:00 6.1 C 90 % 1023.2 hPa 0.0 l/m 0.2 km/h (0 Bft) N 4.6 C 6.1 C
06.11.2002 11:00 6.9 C 82 % 1022.6 hPa 0.0 l/m 0.1 km/h (0 Bft) N 4.0 C 6.9 C
06.11.2002 12:00 7.5 C 73 % 1021.5 hPa 0.0 l/m 1.6 km/h (1 Bft) NW 3.0 C 7.3 C
06.11.2002 13:00 8.8 C 64 % 1020.3 hPa 0.0 l/m 3.9 km/h (1 Bft) NW 2.3 C 8.2 C
06.11.2002 14:00 9.3 C 65 % 1019.3 hPa 0.0 l/m 3.2 km/h (1 Bft) NW 3.0 C 8.9 C
06.11.2002 15:00 8.7 C 70 % 1018.4 hPa 0.0 l/m 2.0 km/h (1 Bft) NW 3.5 C 8.5 C
06.11.2002 16:00 7.2 C 76 % 1017.2 hPa 0.0 l/m 0.3 km/h (0 Bft) W-NW 3.2 C 7.2 C
06.11.2002 17:00 5.0 C 87 % 1017.0 hPa 0.0 l/m 3.9 km/h (1 Bft) SO 3.1 C 4.1 C
06.11.2002 18:00 3.4 C 92 % 1016.1 hPa 0.0 l/m 2.8 km/h (1 Bft) O-SO 2.2 C 2.8 C
06.11.2002 19:00 2.4 C 95 % 1015.1 hPa 0.0 l/m 0.9 km/h (0 Bft) O-SO 1.7 C 2.2 C
06.11.2002 20:00 1.6 C 97 % 1014.1 hPa 0.0 l/m 0.5 km/h (0 Bft) O-SO 1.2 C 1.6 C
06.11.2002 21:00 1.2 C 98 % 1013.2 hPa 0.0 l/m 0.0 km/h (0 Bft) N 0.8 C 1.2 C
06.11.2002 22:00 1.6 C 100 % 1012.7 hPa 0.0 l/m 0.1 km/h (0 Bft) O-SO 1.5 C 1.6 C
06.11.2002 23:00 1.1 C 100 % 1011.8 hPa 0.0 l/m 0.1 km/h (0 Bft) O-SO 1.1 C 1.1 C
07.11.2002 00:00 0.8 C 100 % 1011.8 hPa 0.0 l/m 2.0 km/h (1 Bft) O-SO 0.8 C 0.7 C
07.11.2002 01:00 0.9 C 100 % 1011.6 hPa 0.0 l/m 1.5 km/h (1 Bft) O-SO 0.9 C 0.6 C
07.11.2002 02:00 1.0 C 100 % 1011.1 hPa 0.0 l/m 5.5 km/h (1 Bft) O-SO 1.0 C -0.7 C
07.11.2002 03:00 1.5 C 100 % 1010.8 hPa 0.0 l/m 0.0 km/h (0 Bft) N 1.5 C 1.5 C
07.11.2002 04:00 1.3 C 100 % 1011.1 hPa 0.0 l/m 0.1 km/h (0 Bft) N 1.3 C 1.3 C
07.11.2002 05:00 1.5 C 100 % 1010.9 hPa 0.0 l/m 0.2 km/h (0 Bft) N 1.5 C 1.5 C
07.11.2002 06:00 1.8 C 100 % 1010.8 hPa 0.3 l/m 0.1 km/h (0 Bft) N 1.8 C 1.8 C
07.11.2002 07:00 2.2 C 100 % 1010.8 hPa 0.3 l/m 0.5 km/h (0 Bft) SO 2.2 C 2.1 C
07.11.2002 08:00 2.5 C 100 % 1010.8 hPa 0.3 l/m 0.3 km/h (0 Bft) N 2.5 C 2.5 C
07.11.2002 09:00 2.9 C 98 % 1010.8 hPa 0.6 l/m 0.2 km/h (0 Bft) N 2.6 C 2.9 C
07.11.2002 10:00 3.3 C 97 % 1010.8 hPa 0.0 l/m 0.2 km/h (0 Bft) N 2.8 C 3.3 C
07.11.2002 11:00 4.0 C 96 % 1010.8 hPa 0.3 l/m 0.2 km/h (0 Bft) N-NW 3.5 C 4.0 C
07.11.2002 12:00 5.6 C 91 % 1010.8 hPa 0.0 l/m 9.6 km/h (2 Bft) NW 4.2 C 3.8 C
07.11.2002 13:00 6.2 C 84 % 1010.8 hPa 0.0 l/m 24.6 km/h (4 Bft) W-NW 3.7 C 2.2 C
07.11.2002 14:00 6.0 C 83 % 1011.4 hPa 0.0 l/m 22.1 km/h (4 Bft) NW 3.4 C 2.4 C
07.11.2002 15:00 5.5 C 86 % 1011.8 hPa 0.3 l/m 15.8 km/h (3 Bft) NW 3.4 C 2.6 C
07.11.2002 16:00 5.5 C 88 % 1012.4 hPa 0.9 l/m 22.0 km/h (4 Bft) NW 3.6 C 1.7 C
07.11.2002 17:00 5.2 C 90 % 1012.8 hPa 0.0 l/m 18.4 km/h (3 Bft) NW 3.7 C 1.9 C
07.11.2002 18:00 5.2 C 83 % 1013.3 hPa 0.0 l/m 27.5 km/h (4 Bft) NW 2.6 C 0.7 C
07.11.2002 19:00 5.0 C 81 % 1013.9 hPa 0.0 l/m 18.4 km/h (3 Bft) NW 2.0 C 1.5 C
07.11.2002 20:00 4.7 C 79 % 1014.1 hPa 0.0 l/m 11.9 km/h (2 Bft) NW 1.5 C 2.5 C
07.11.2002 21:00 4.5 C 79 % 1014.9 hPa 0.0 l/m 18.1 km/h (3 Bft) NW 1.1 C 0.9 C
07.11.2002 22:00 4.1 C 79 % 1014.9 hPa 0.0 l/m 17.4 km/h (3 Bft) NW 0.9 C 0.5 C
07.11.2002 23:00 3.5 C 82 % 1015.0 hPa 0.0 l/m 20.6 km/h (4 Bft) W-NW 0.8 C -0.8 C
08.11.2002 00:00 2.8 C 83 % 1015.9 hPa 0.0 l/m 5.2 km/h (1 Bft) W-NW 0.3 C 1.7 C
08.11.2002 01:00 2.8 C 86 % 1016.6 hPa 0.0 l/m 2.7 km/h (1 Bft) NW 0.8 C 2.3 C
08.11.2002 02:00 2.8 C 87 % 1017.0 hPa 0.0 l/m 6.7 km/h (2 Bft) W 0.9 C 1.2 C
08.11.2002 03:00 2.8 C 89 % 1017.6 hPa 0.0 l/m 4.9 km/h (1 Bft) NW 1.2 C 1.8 C
08.11.2002 04:00 2.3 C 94 % 1018.0 hPa 0.0 l/m 3.5 km/h (1 Bft) NW 1.3 C 1.4 C
08.11.2002 05:00 2.7 C 91 % 1018.7 hPa 0.0 l/m 8.3 km/h (2 Bft) NW 1.4 C 0.7 C
08.11.2002 06:00 3.0 C 85 % 1019.0 hPa 0.0 l/m 0.9 km/h (0 Bft) SO 0.8 C 2.9 C
08.11.2002 07:00 2.8 C 88 % 1020.1 hPa 0.0 l/m 2.2 km/h (1 Bft) SO 1.0 C 2.4 C
08.11.2002 08:00 3.0 C 87 % 1020.1 hPa 0.0 l/m 0.4 km/h (0 Bft) SO 1.0 C 3.0 C
08.11.2002 09:00 3.3 C 87 % 1020.2 hPa 0.0 l/m 1.8 km/h (1 Bft) O-SO 1.4 C 3.0 C
08.11.2002 10:00 3.8 C 84 % 1021.1 hPa 0.0 l/m 2.6 km/h (1 Bft) SO 1.3 C 3.4 C
08.11.2002 11:00 4.4 C 81 % 1020.6 hPa 0.3 l/m 3.0 km/h (1 Bft) NO 1.4 C 3.7 C
08.11.2002 12:00 5.1 C 73 % 1019.9 hPa 0.0 l/m 1.5 km/h (1 Bft) W-SW 0.6 C 5.0 C
08.11.2002 13:00 5.3 C 70 % 1019.0 hPa 0.0 l/m 2.7 km/h (1 Bft) W-NW 0.4 C 4.8 C
08.11.2002 14:00 5.6 C 69 % 1018.3 hPa 0.0 l/m 5.6 km/h (1 Bft) NW 0.4 C 4.5 C
08.11.2002 15:00 6.2 C 66 % 1018.0 hPa 0.0 l/m 8.2 km/h (2 Bft) NW 0.3 C 4.8 C
08.11.2002 16:00 5.3 C 77 % 1017.7 hPa 0.0 l/m 1.2 km/h (1 Bft) W-NW 1.5 C 5.1 C
08.11.2002 17:00 3.8 C 83 % 1017.0 hPa 0.0 l/m 0.0 km/h (0 Bft) N 1.1 C 3.8 C
08.11.2002 18:00 3.2 C 83 % 1016.4 hPa 0.0 l/m 2.0 km/h (1 Bft) SO 0.6 C 2.8 C
08.11.2002 19:00 2.9 C 85 % 1015.5 hPa 0.0 l/m 2.6 km/h (1 Bft) SO 0.6 C 2.3 C
08.11.2002 20:00 2.6 C 84 % 1014.4 hPa 0.0 l/m 2.3 km/h (1 Bft) SO 0.2 C 2.2 C
08.11.2002 21:00 2.6 C 83 % 1013.0 hPa 0.0 l/m 4.4 km/h (1 Bft) SO -0.0 C 1.6 C
08.11.2002 22:00 3.7 C 71 % 1011.5 hPa 0.0 l/m 12.2 km/h (2 Bft) SO -1.0 C 1.0 C
08.11.2002 23:00 4.2 C 66 % 1009.8 hPa 0.0 l/m 10.7 km/h (2 Bft) SO -1.5 C 1.9 C
09.11.2002 00:00 4.7 C 66 % 1008.2 hPa 0.0 l/m 10.4 km/h (2 Bft) S-SO -1.1 C 2.6 C
09.11.2002 01:00 4.3 C 76 % 1006.5 hPa 0.6 l/m 9.4 km/h (2 Bft) SO 0.5 C 2.3 C
09.11.2002 02:00 4.1 C 80 % 1005.6 hPa 0.3 l/m 13.0 km/h (3 Bft) S 1.1 C 1.2 C
09.11.2002 03:00 3.9 C 85 % 1004.3 hPa 0.3 l/m 16.4 km/h (3 Bft) SO 1.6 C 0.4 C
09.11.2002 04:00 3.9 C 88 % 1003.5 hPa 0.6 l/m 15.6 km/h (3 Bft) SO 2.1 C 0.4 C
09.11.2002 05:00 4.3 C 89 % 1003.2 hPa 0.3 l/m 16.8 km/h (3 Bft) SO 2.7 C 0.7 C
09.11.2002 06:00 4.8 C 89 % 1002.5 hPa 0.3 l/m 14.5 km/h (3 Bft) SO 3.2 C 1.8 C
09.11.2002 07:00 5.7 C 89 % 1002.5 hPa 0.3 l/m 8.2 km/h (2 Bft) S-SO 4.0 C 4.1 C
09.11.2002 08:00 6.1 C 85 % 1002.5 hPa 0.0 l/m 7.1 km/h (2 Bft) S 3.8 C 4.7 C
09.11.2002 09:00 6.9 C 79 % 1002.7 hPa 0.0 l/m 10.6 km/h (2 Bft) S 3.6 C 5.1 C
09.11.2002 10:00 7.9 C 75 % 1003.4 hPa 0.3 l/m 10.5 km/h (2 Bft) W-SW 3.8 C 6.2 C
09.11.2002 11:00 7.7 C 84 % 1003.5 hPa 0.9 l/m 7.7 km/h (2 Bft) W 5.2 C 6.6 C
09.11.2002 12:00 7.9 C 88 % 1002.5 hPa 1.2 l/m 6.8 km/h (2 Bft) W 6.0 C 6.9 C
09.11.2002 13:00 8.0 C 91 % 1002.5 hPa 2.4 l/m 3.2 km/h (1 Bft) W 6.6 C 7.6 C
09.11.2002 14:00 7.7 C 94 % 1002.5 hPa 3.3 l/m 3.1 km/h (1 Bft) SO 6.8 C 7.3 C
09.11.2002 15:00 7.5 C 96 % 1003.3 hPa 2.1 l/m 4.8 km/h (1 Bft) S 7.0 C 6.8 C
09.11.2002 16:00 8.0 C 94 % 1004.4 hPa 1.8 l/m 1.6 km/h (1 Bft) N-NW 7.1 C 7.8 C
09.11.2002 17:00 6.1 C 89 % 1005.6 hPa 0.9 l/m 19.5 km/h (3 Bft) NW 4.4 C 2.8 C
09.11.2002 18:00 6.0 C 87 % 1006.6 hPa 0.0 l/m 6.6 km/h (2 Bft) NW 3.9 C 4.8 C
09.11.2002 19:00 4.8 C 92 % 1007.7 hPa 0.0 l/m 1.3 km/h (1 Bft) O 3.7 C 4.7 C
09.11.2002 20:00 4.3 C 96 % 1008.7 hPa 0.0 l/m 5.8 km/h (2 Bft) O-SO 3.7 C 3.1 C
09.11.2002 21:00 3.7 C 97 % 1009.7 hPa 0.0 l/m 2.0 km/h (1 Bft) O-SO 3.2 C 3.3 C
09.11.2002 22:00 3.3 C 99 % 1010.6 hPa 0.0 l/m 4.1 km/h (1 Bft) O 3.1 C 2.4 C
09.11.2002 23:00 3.9 C 99 % 1010.8 hPa 0.0 l/m 0.6 km/h (0 Bft) O-SO 3.8 C 3.9 C
10.11.2002 00:00 4.0 C 99 % 1010.8 hPa 0.0 l/m 0.6 km/h (0 Bft) O-SO 3.9 C 4.0 C
10.11.2002 01:00 3.8 C 100 % 1010.8 hPa 0.0 l/m 2.6 km/h (1 Bft) O-SO 3.8 C 3.2 C
10.11.2002 02:00 3.2 C 100 % 1010.8 hPa 0.0 l/m 2.3 km/h (1 Bft) O-SO 3.2 C 2.6 C
10.11.2002 03:00 3.2 C 100 % 1011.5 hPa 0.0 l/m 0.8 km/h (0 Bft) O-SO 3.2 C 3.0 C
10.11.2002 04:00 3.5 C 100 % 1011.8 hPa 0.0 l/m 0.5 km/h (0 Bft) O-SO 3.5 C 3.4 C
10.11.2002 05:00 3.8 C 100 % 1011.8 hPa 0.0 l/m 0.0 km/h (0 Bft) N 3.8 C 3.8 C
10.11.2002 06:00 3.7 C 100 % 1011.8 hPa 0.0 l/m 0.1 km/h (0 Bft) N 3.8 C 3.7 C
10.11.2002 07:00 3.6 C 100 % 1011.8 hPa 0.0 l/m 0.0 km/h (0 Bft) N 3.6 C 3.6 C
10.11.2002 08:00 3.6 C 100 % 1012.5 hPa 0.0 l/m 0.0 km/h (0 Bft) N 3.6 C 3.6 C
10.11.2002 09:00 4.1 C 100 % 1012.8 hPa 0.0 l/m 0.0 km/h (0 Bft) N 4.1 C 4.1 C
10.11.2002 10:00 4.4 C 98 % 1012.8 hPa 0.0 l/m 0.0 km/h (0 Bft) O-SO 4.1 C 4.4 C
10.11.2002 11:00 4.8 C 94 % 1011.9 hPa 0.0 l/m 0.5 km/h (0 Bft) O-SO 3.9 C 4.8 C
10.11.2002 12:00 5.7 C 89 % 1011.8 hPa 0.0 l/m 0.3 km/h (0 Bft) W-NW 4.0 C 5.7 C
10.11.2002 13:00 6.5 C 85 % 1010.9 hPa 0.0 l/m 0.0 km/h (0 Bft) N 4.2 C 6.5 C
10.11.2002 14:00 6.4 C 88 % 1010.6 hPa 0.3 l/m 0.0 km/h (0 Bft) N 4.5 C 6.4 C
10.11.2002 15:00 6.3 C 93 % 1009.7 hPa 0.6 l/m 0.0 km/h (0 Bft) N 5.3 C 6.3 C
10.11.2002 16:00 5.9 C 97 % 1009.7 hPa 0.9 l/m 0.1 km/h (0 Bft) SO 5.3 C 5.9 C
10.11.2002 17:00 5.8 C 99 % 1008.9 hPa 0.9 l/m 0.0 km/h (0 Bft) N 5.7 C 5.8 C
10.11.2002 18:00 5.8 C 100 % 1008.7 hPa 1.8 l/m 0.0 km/h (0 Bft) N 5.8 C 5.8 C
10.11.2002 19:00 6.1 C 100 % 1008.7 hPa 1.2 l/m 0.0 km/h (0 Bft) N 6.1 C 6.1 C
10.11.2002 20:00 6.1 C 100 % 1008.1 hPa 0.6 l/m 0.1 km/h (0 Bft) N 6.1 C 6.1 C
10.11.2002 21:00 6.0 C 100 % 1007.7 hPa 0.6 l/m 0.1 km/h (0 Bft) N 6.0 C 6.0 C
10.11.2002 22:00 6.1 C 100 % 1007.6 hPa 0.9 l/m 0.0 km/h (0 Bft) N 6.1 C 6.1 C
10.11.2002 23:00 6.3 C 100 % 1006.6 hPa 0.6 l/m 0.0 km/h (0 Bft) N 6.3 C 6.3 C
Min-Datum _ 07.11.02 08.11.02 09.11.02 - 04.11.02 - 08.11.02 08.11.02
_ Min-Zeit 00:07 15:21 05:46 - 03:41 - 23:42 04:21
Minimum _ 0.5 C 56 % 1002.5 hPa - 0.0 km/h (0 Bft) - -1.8 C -2.2 C
Max-Datum _ 05.11.02 05.11.02 05.11.02 09.11.02 07.11.02 - 09.11.02 05.11.02
_ Max-Zeit 14:27 06:30 22:00 13:00 18:23 - 16:16 14:27
Maximum _ 10.0 C 100 % 1025.3 hPa 3.3 l/m 53.4 km/h
NW (7 Bft)
- 8.1 C 10.0 C
Durchschnitt _ 5.3 C 90 % 1014.7 hPa #40.2 l/m 4.1 km/h (1 Bft) NW 3.7 C 4.6 C

Durchschnitt Minimum Temp.4.9 C
Durchschnitt Maximum Temp.5.7 C
© Kaiko 2002